首页
METAR-TAF:

METAR-TAF

机场 :

希俄斯, 希腊

纬度: 38-20N, 经度: 026-08E, 海拔: 5米

当前天气观测

该预报发布于31分钟前的21:50 UTC
静风
温度 11°C
湿度 87%
气压 1006 hPa
能见度10公里或以上
少量云层高于1800英尺, 积雨云.
散云层高于2500英尺

METAR: LGHI 112150Z 00000KT 9999 FEW018CB SCT025 11/09 Q1006

时间: 00:21 (22:21 UTC)

预报

该预报发布于2小时和21分钟前的20:00 UTC
预报有效从11日的 21点(UTC)到 12日的 06点(UTC)
风速10节,风向南转南东
能见度10公里或以上
少量云层高于1000英尺
散云层高于2000英尺
几率 40% :
短暂存在
从 11日的 21点(UTC)到 12日的 06点(UTC)
能見度: 5000
散云层高于1000英尺
少量云层高于1800英尺, 塔状积云.
多云层高于2000英尺
几率 40% :
短暂存在
从 11日的 21点(UTC)到 12日的 06点(UTC)
能見度: 3000
散云层高于800英尺
少量云层高于1800英尺, 积雨云.
多云层高于2000英尺
雷暴, 雨

TAF: LGHI 112000Z 1121/1206 15010KT 9999 FEW010 SCT020 PROB40 TEMPO 1121/1206 5000 RA SCT010 FEW018TCU BKN020 PROB40 TEMPO 1121/1206 3000 TSRA SCT008 FEW018CB BKN020

超过4000个机场的气象观测和天气预报(METAR&TAF报告)。

可查询的气象台以黄色和红色小点在地图上表示。

将鼠标移到小点上方,可查看气象台名称。

然后点击查看天气观测和预报。

如需切换地图:点击带黑十字的绿色按钮放大地图;点击带横线的绿色按钮缩小地图;或者点击绿色箭头查看邻近地区的地图。


METAR-TAF: